createdAt,value
2019-03-28T00:01:07.865Z,8.12
2019-03-28T00:03:42.172Z,8.09
2019-03-28T00:06:16.534Z,8.09
2019-03-28T00:08:51.132Z,8.08
2019-03-28T00:11:25.509Z,8.11
2019-03-28T00:13:59.844Z,8.08
2019-03-28T00:16:34.130Z,8.04
2019-03-28T00:19:08.470Z,8.08
2019-03-28T00:21:42.755Z,8.09
2019-03-28T00:24:26.894Z,8.14
2019-03-28T00:27:01.185Z,8.12
2019-03-28T00:29:35.504Z,8.17
2019-03-28T00:32:09.796Z,8.25
2019-03-28T00:34:44.421Z,8.31
2019-03-28T00:37:19.046Z,8.28
2019-03-28T00:39:53.428Z,8.32
2019-03-28T00:42:27.727Z,8.27
2019-03-28T00:45:02.570Z,8.31
2019-03-28T00:47:36.862Z,8.26
2019-03-28T00:50:11.807Z,8.30
2019-03-28T00:52:46.253Z,8.37
2019-03-28T00:55:20.574Z,8.37
2019-03-28T00:57:56.000Z,8.26
2019-03-28T01:00:30.473Z,8.19
2019-03-28T01:03:04.852Z,8.18
2019-03-28T01:05:39.216Z,8.15
2019-03-28T01:08:13.608Z,8.14
2019-03-28T01:10:48.009Z,8.09
2019-03-28T01:13:22.301Z,8.05
2019-03-28T01:15:56.868Z,8.04
2019-03-28T01:18:31.159Z,8.07
2019-03-28T01:21:06.157Z,8.06
2019-03-28T01:23:40.717Z,7.97
2019-03-28T01:26:15.037Z,8.01
2019-03-28T01:28:49.330Z,7.97
2019-03-28T01:31:23.652Z,7.96
2019-03-28T01:33:57.947Z,7.94
2019-03-28T01:36:32.343Z,8.03
2019-03-28T01:39:07.289Z,8.02
2019-03-28T01:41:41.604Z,7.99
2019-03-28T01:44:15.897Z,8.01
2019-03-28T01:46:50.471Z,8.04
2019-03-28T01:49:25.102Z,8.03
2019-03-28T01:51:59.443Z,7.97
2019-03-28T01:54:33.727Z,7.95
2019-03-28T01:57:11.196Z,8.01
2019-03-28T01:59:44.607Z,8.05
2019-03-28T02:02:18.923Z,8.10
2019-03-28T02:04:53.293Z,8.03
2019-03-28T02:07:27.604Z,8.11
2019-03-28T02:10:01.914Z,8.12
2019-03-28T02:12:36.498Z,8.03
2019-03-28T02:15:10.944Z,8.03
2019-03-28T02:17:45.562Z,8.04
2019-03-28T02:20:19.931Z,7.98
2019-03-28T02:22:54.290Z,7.94
2019-03-28T02:25:28.527Z,7.98
2019-03-28T02:28:02.877Z,7.97
2019-03-28T02:30:37.164Z,7.91
2019-03-28T02:33:11.500Z,7.91
2019-03-28T02:35:45.863Z,7.93
2019-03-28T02:38:20.224Z,7.91
2019-03-28T02:40:54.596Z,7.98
2019-03-28T02:43:29.027Z,8.00
2019-03-28T02:46:03.311Z,8.01
2019-03-28T02:48:37.654Z,8.01
2019-03-28T02:51:11.943Z,8.02
2019-03-28T02:53:46.257Z,8.08
2019-03-28T02:56:20.544Z,8.13
2019-03-28T02:58:54.903Z,8.18
2019-03-28T03:01:31.076Z,8.17
2019-03-28T03:04:05.473Z,8.19
2019-03-28T03:06:39.758Z,8.21
2019-03-28T03:09:14.085Z,8.28
2019-03-28T03:11:48.376Z,8.22
2019-03-28T03:14:22.742Z,8.25
2019-03-28T03:16:57.408Z,8.31
2019-03-28T03:19:31.751Z,8.20
2019-03-28T03:22:06.041Z,8.19
2019-03-28T03:24:40.620Z,8.16
2019-03-28T03:27:14.910Z,8.14
2019-03-28T03:29:49.251Z,8.10
2019-03-28T03:32:23.547Z,8.05
2019-03-28T03:34:57.959Z,8.05
2019-03-28T03:37:32.252Z,8.11
2019-03-28T03:40:07.795Z,8.18
2019-03-28T03:42:42.770Z,8.22
2019-03-28T03:45:17.133Z,8.24
2019-03-28T03:47:51.750Z,8.29
2019-03-28T03:50:28.372Z,8.30
2019-03-28T03:53:02.664Z,8.28
2019-03-28T03:55:37.021Z,8.25
2019-03-28T03:58:15.945Z,8.24
2019-03-28T04:00:47.341Z,8.30
2019-03-28T04:03:21.631Z,8.33
2019-03-28T04:05:56.237Z,8.30
2019-03-28T04:08:30.517Z,8.28
2019-03-28T04:11:04.970Z,8.25
2019-03-28T04:13:39.251Z,8.26
2019-03-28T04:16:13.566Z,8.32
2019-03-28T04:18:48.154Z,8.31
2019-03-28T04:21:22.492Z,8.37
2019-03-28T04:23:56.791Z,8.36
2019-03-28T04:26:31.723Z,8.34
2019-03-28T04:29:06.087Z,8.25
2019-03-28T04:31:40.764Z,8.25
2019-03-28T04:34:15.060Z,8.24
2019-03-28T04:36:49.559Z,8.20
2019-03-28T04:39:23.845Z,8.14
2019-03-28T04:41:58.176Z,8.10
2019-03-28T04:44:32.753Z,8.18
2019-03-28T04:47:07.104Z,8.20
2019-03-28T04:49:41.403Z,8.23
2019-03-28T04:52:15.737Z,8.21
2019-03-28T04:54:50.038Z,8.24
2019-03-28T04:57:24.714Z,8.26
2019-03-28T04:59:59.609Z,8.32
2019-03-28T05:02:33.949Z,8.33
2019-03-28T05:05:08.989Z,8.20
2019-03-28T05:07:43.308Z,8.28
2019-03-28T05:10:17.686Z,8.23
2019-03-28T05:12:52.010Z,8.25
2019-03-28T05:15:26.309Z,8.21
2019-03-28T05:18:01.570Z,8.17
2019-03-28T05:20:35.874Z,8.19
2019-03-28T05:23:10.202Z,8.26
2019-03-28T05:25:44.488Z,8.34
2019-03-28T05:28:19.350Z,8.32
2019-03-28T05:30:53.643Z,8.38
2019-03-28T05:33:27.964Z,8.43
2019-03-28T05:36:04.462Z,8.52
2019-03-28T05:38:39.306Z,8.54
2019-03-28T05:41:13.744Z,8.54
2019-03-28T05:43:48.096Z,8.58
2019-03-28T05:46:22.390Z,8.65
2019-03-28T05:48:57.025Z,8.69
2019-03-28T05:51:31.319Z,8.74
2019-03-28T05:54:05.650Z,8.79
2019-03-28T05:56:39.945Z,8.77
2019-03-28T05:59:14.270Z,8.81
2019-03-28T06:01:48.561Z,8.88
2019-03-28T06:04:23.125Z,8.89
2019-03-28T06:06:58.474Z,8.91
2019-03-28T06:09:32.811Z,8.96
2019-03-28T06:12:07.179Z,8.98
2019-03-28T06:14:42.041Z,9.00
2019-03-28T06:17:16.322Z,9.05
2019-03-28T06:19:50.984Z,9.03
2019-03-28T06:22:25.277Z,9.06
2019-03-28T06:24:59.614Z,9.12
2019-03-28T06:27:34.182Z,9.15
2019-03-28T06:30:09.880Z,9.19
2019-03-28T06:32:44.172Z,9.18
2019-03-28T06:35:21.740Z,9.23
2019-03-28T06:37:54.913Z,9.25
2019-03-28T06:40:29.296Z,9.26
2019-03-28T06:43:03.674Z,9.06
2019-03-28T06:45:38.254Z,9.05
2019-03-28T06:48:12.534Z,9.25
2019-03-28T06:50:47.197Z,9.38
2019-03-28T06:53:21.488Z,9.45
2019-03-28T06:55:56.083Z,9.49
2019-03-28T06:58:30.383Z,9.30
2019-03-28T07:01:04.737Z,9.22
2019-03-28T07:03:39.104Z,9.26
2019-03-28T07:06:14.512Z,9.38
2019-03-28T07:08:48.941Z,9.47
2019-03-28T07:11:23.293Z,9.51
2019-03-28T07:13:57.617Z,9.62
2019-03-28T07:16:31.964Z,9.74
2019-03-28T07:19:06.266Z,9.63
2019-03-28T07:21:40.621Z,9.79
2019-03-28T07:24:14.993Z,9.80
2019-03-28T07:26:49.358Z,9.77
2019-03-28T07:29:23.658Z,9.74
2019-03-28T07:31:57.998Z,9.80
2019-03-28T07:34:32.538Z,9.82
2019-03-28T07:37:06.942Z,9.88
2019-03-28T07:39:41.540Z,9.95
2019-03-28T07:42:15.867Z,10.01
2019-03-28T07:44:50.176Z,10.04
2019-03-28T07:47:24.565Z,10.06
2019-03-28T07:49:58.853Z,10.13
2019-03-28T07:52:33.200Z,10.19
2019-03-28T07:55:08.631Z,10.34
2019-03-28T07:57:42.999Z,10.25
2019-03-28T08:00:17.903Z,10.45
2019-03-28T08:02:52.259Z,10.35
2019-03-28T08:05:26.558Z,10.51
2019-03-28T08:08:01.122Z,10.57
2019-03-28T08:10:35.663Z,10.59
2019-03-28T08:13:10.027Z,10.73
2019-03-28T08:15:44.771Z,10.74
2019-03-28T08:18:19.571Z,10.57
2019-03-28T08:20:54.107Z,10.62
2019-03-28T08:23:28.539Z,10.80
2019-03-28T08:26:02.891Z,10.86
2019-03-28T08:28:37.223Z,10.88
2019-03-28T08:31:11.878Z,11.01
2019-03-28T08:33:46.855Z,10.99
2019-03-28T08:36:21.213Z,11.08
2019-03-28T08:38:56.903Z,11.22
2019-03-28T08:41:31.557Z,11.26
2019-03-28T08:44:07.412Z,11.11
2019-03-28T08:46:41.807Z,11.11
2019-03-28T08:49:16.165Z,11.08
2019-03-28T08:51:50.777Z,11.10
2019-03-28T08:54:25.103Z,11.13
2019-03-28T08:56:59.776Z,11.15
2019-03-28T08:59:34.106Z,11.23
2019-03-28T09:02:08.485Z,11.31
2019-03-28T09:04:42.828Z,11.35
2019-03-28T09:07:17.622Z,11.26
2019-03-28T09:09:52.342Z,11.28
2019-03-28T09:12:27.491Z,11.14
2019-03-28T09:15:01.959Z,11.18
2019-03-28T09:17:36.674Z,11.33
2019-03-28T09:20:11.304Z,11.40
2019-03-28T09:22:46.232Z,11.42
2019-03-28T09:25:20.608Z,11.40
2019-03-28T09:27:54.924Z,11.48
2019-03-28T09:30:47.907Z,11.62
2019-03-28T09:33:13.847Z,11.69
2019-03-28T09:35:48.563Z,11.82
2019-03-28T09:38:22.817Z,11.95
2019-03-28T09:40:57.189Z,12.01
2019-03-28T09:43:31.475Z,12.12
2019-03-28T09:46:05.917Z,11.84
2019-03-28T09:48:40.455Z,11.79
2019-03-28T09:51:14.945Z,12.05
2019-03-28T09:53:49.538Z,12.13
2019-03-28T09:56:23.884Z,12.28
2019-03-28T09:59:00.325Z,12.53
2019-03-28T10:01:34.600Z,12.85
2019-03-28T10:04:08.960Z,13.19
2019-03-28T10:06:43.760Z,13.52
2019-03-28T10:09:18.066Z,13.80
2019-03-28T10:11:52.467Z,13.87
2019-03-28T10:14:27.751Z,13.63
2019-03-28T10:17:02.471Z,13.64
2019-03-28T10:19:36.767Z,13.55
2019-03-28T10:22:11.091Z,13.70
2019-03-28T10:24:45.728Z,13.66
2019-03-28T10:27:20.094Z,13.79
2019-03-28T10:29:54.476Z,13.91
2019-03-28T10:32:28.827Z,14.36
2019-03-28T10:35:06.724Z,14.56
2019-03-28T10:37:39.748Z,14.76
2019-03-28T10:40:14.326Z,15.19
2019-03-28T10:42:48.655Z,15.79
2019-03-28T10:45:22.959Z,16.32
2019-03-28T10:47:57.310Z,16.65
2019-03-28T10:50:40.818Z,16.00
2019-03-28T10:53:07.754Z,15.50
2019-03-28T10:55:42.654Z,15.44
2019-03-28T10:58:19.505Z,15.19
2019-03-28T11:00:54.712Z,14.73
2019-03-28T11:03:30.327Z,13.93
2019-03-28T11:06:07.538Z,14.71
2019-03-28T11:08:42.668Z,14.92
2019-03-28T11:11:17.592Z,14.83
2019-03-28T11:13:51.943Z,15.19
2019-03-28T11:16:26.663Z,15.23
2019-03-28T11:19:00.999Z,14.22
2019-03-28T11:21:35.309Z,14.76
2019-03-28T11:24:09.765Z,14.46
2019-03-28T11:26:44.060Z,13.93
2019-03-28T11:29:18.410Z,14.31
2019-03-28T11:31:53.029Z,14.90
2019-03-28T11:34:27.751Z,15.44
2019-03-28T11:37:02.045Z,15.42
2019-03-28T11:39:36.672Z,15.62
2019-03-28T11:42:11.241Z,15.24
2019-03-28T11:44:45.899Z,15.86
2019-03-28T11:47:22.194Z,15.71
2019-03-28T11:49:56.809Z,15.37
2019-03-28T11:52:31.283Z,15.69
2019-03-28T11:55:06.435Z,15.53
2019-03-28T11:57:40.889Z,15.71
2019-03-28T12:00:16.931Z,16.09
2019-03-28T12:02:51.397Z,16.27
2019-03-28T12:05:25.795Z,15.84
2019-03-28T12:08:00.212Z,16.23
2019-03-28T12:10:35.057Z,16.77
2019-03-28T12:13:09.686Z,16.27
2019-03-28T12:15:44.164Z,17.07
2019-03-28T12:18:18.659Z,17.67
2019-03-28T12:20:53.094Z,17.69
2019-03-28T12:23:27.467Z,17.96
2019-03-28T12:26:01.864Z,18.11
2019-03-28T12:28:36.217Z,17.18
2019-03-28T12:31:10.837Z,17.45
2019-03-28T12:33:45.276Z,17.23
2019-03-28T12:36:19.695Z,17.14
2019-03-28T12:38:54.722Z,16.91
2019-03-28T12:41:29.263Z,16.08
2019-03-28T12:44:04.021Z,16.27
2019-03-28T12:46:38.404Z,16.50
2019-03-28T12:49:12.775Z,17.00
2019-03-28T12:51:47.230Z,17.54
2019-03-28T12:54:21.576Z,17.08
2019-03-28T12:56:58.140Z,17.15
2019-03-28T12:59:33.765Z,17.30
2019-03-28T13:02:08.288Z,17.51
2019-03-28T13:04:42.651Z,18.14
2019-03-28T13:07:17.133Z,18.27
2019-03-28T13:09:51.607Z,18.05
2019-03-28T13:12:26.020Z,18.16
2019-03-28T13:15:00.467Z,18.13
2019-03-28T13:17:34.947Z,18.28
2019-03-28T13:20:09.923Z,18.54
2019-03-28T13:22:44.539Z,18.81
2019-03-28T13:25:18.911Z,18.81
2019-03-28T13:27:53.285Z,18.52
2019-03-28T13:30:27.649Z,18.49
2019-03-28T13:33:02.002Z,18.37
2019-03-28T13:35:36.276Z,18.03
2019-03-28T13:38:10.582Z,17.79
2019-03-28T13:40:44.865Z,17.22
2019-03-28T13:43:19.416Z,17.17
2019-03-28T13:45:53.729Z,16.54
2019-03-28T13:48:28.096Z,16.67
2019-03-28T13:51:02.422Z,16.83
2019-03-28T13:53:39.654Z,16.87
2019-03-28T13:56:13.199Z,16.94
2019-03-28T13:58:47.765Z,16.41
2019-03-28T14:01:22.644Z,16.70
2019-03-28T14:03:57.214Z,16.84
2019-03-28T14:06:31.535Z,17.01
2019-03-28T14:09:07.649Z,17.06
2019-03-28T14:11:41.967Z,17.17
2019-03-28T14:14:16.746Z,16.95
2019-03-28T14:16:53.192Z,16.78
2019-03-28T14:19:27.262Z,16.82
2019-03-28T14:22:01.832Z,16.92
2019-03-28T14:24:36.171Z,17.03
2019-03-28T14:27:10.477Z,17.20
2019-03-28T14:29:44.866Z,16.99
2019-03-28T14:32:19.155Z,16.89
2019-03-28T14:34:53.595Z,16.78
2019-03-28T14:37:28.345Z,17.01
2019-03-28T14:40:03.057Z,16.88
2019-03-28T14:42:37.402Z,16.79
2019-03-28T14:45:12.393Z,16.80
2019-03-28T14:47:46.670Z,16.76
2019-03-28T14:50:34.575Z,16.87
2019-03-28T14:53:09.111Z,16.82
2019-03-28T14:55:43.903Z,17.11
2019-03-28T14:58:21.722Z,17.35
2019-03-28T15:00:54.818Z,17.38
2019-03-28T15:03:29.334Z,17.66
2019-03-28T15:06:03.772Z,17.89
2019-03-28T15:08:38.301Z,18.02
2019-03-28T15:11:12.651Z,18.55
2019-03-28T15:13:46.964Z,19.23
2019-03-28T15:16:21.245Z,20.86
2019-03-28T15:18:56.040Z,21.70
2019-03-28T15:21:30.306Z,21.44
2019-03-28T15:24:05.699Z,20.98
2019-03-28T15:26:40.081Z,20.41
2019-03-28T15:29:14.356Z,19.38
2019-03-28T15:31:48.722Z,18.25
2019-03-28T15:34:23.027Z,17.75
2019-03-28T15:36:57.358Z,17.59
2019-03-28T15:39:31.902Z,17.33
2019-03-28T15:42:06.316Z,16.58
2019-03-28T15:44:40.545Z,16.56
2019-03-28T15:47:14.823Z,16.50
2019-03-28T15:49:49.363Z,16.15
2019-03-28T15:52:23.627Z,15.40
2019-03-28T15:54:57.872Z,15.22
2019-03-28T15:57:32.142Z,15.08
2019-03-28T16:00:07.513Z,15.09
2019-03-28T16:02:41.850Z,15.05
2019-03-28T16:05:16.350Z,14.93
2019-03-28T16:07:50.922Z,14.81
2019-03-28T16:10:25.157Z,14.61
2019-03-28T16:12:59.518Z,14.63
2019-03-28T16:15:34.116Z,14.57
2019-03-28T16:18:08.691Z,14.49
2019-03-28T16:20:42.921Z,14.48
2019-03-28T16:23:17.459Z,14.35
2019-03-28T16:25:51.755Z,14.28
2019-03-28T16:28:28.121Z,14.25
2019-03-28T16:31:02.048Z,14.02
2019-03-28T16:33:36.334Z,13.89
2019-03-28T16:36:10.551Z,13.87
2019-03-28T16:38:45.728Z,13.82
2019-03-28T16:41:20.219Z,13.66
2019-03-28T16:43:54.470Z,13.71
2019-03-28T16:46:28.700Z,13.58
2019-03-28T16:49:03.106Z,13.55
2019-03-28T16:51:37.414Z,13.38
2019-03-28T16:54:11.670Z,13.37
2019-03-28T16:56:45.909Z,13.39
2019-03-28T16:59:20.285Z,13.41
2019-03-28T17:01:54.770Z,13.35
2019-03-28T17:04:29.050Z,13.28
2019-03-28T17:07:04.058Z,13.14
2019-03-28T17:09:39.802Z,13.02
2019-03-28T17:12:14.031Z,13.04
2019-03-28T17:14:48.639Z,13.08
2019-03-28T17:17:22.939Z,12.99
2019-03-28T17:19:57.261Z,13.03
2019-03-28T17:22:31.492Z,13.04
2019-03-28T17:25:06.421Z,12.96
2019-03-28T17:27:41.000Z,12.97
2019-03-28T17:30:15.772Z,12.95
2019-03-28T17:32:50.067Z,12.94
2019-03-28T17:35:24.327Z,12.82
2019-03-28T17:37:58.560Z,12.81
2019-03-28T17:40:32.834Z,12.78
2019-03-28T17:43:07.322Z,12.76
2019-03-28T17:45:41.699Z,12.76
2019-03-28T17:48:16.028Z,12.69
2019-03-28T17:50:50.315Z,12.65
2019-03-28T17:53:24.935Z,12.57
2019-03-28T17:55:59.577Z,12.54
2019-03-28T17:58:33.812Z,12.46
2019-03-28T18:01:08.319Z,12.45
2019-03-28T18:03:42.569Z,12.46
2019-03-28T18:06:16.933Z,12.39
2019-03-28T18:08:51.181Z,12.35
2019-03-28T18:11:25.454Z,12.37
2019-03-28T18:13:59.690Z,12.36
2019-03-28T18:16:34.259Z,12.32
2019-03-28T18:19:08.506Z,12.24
2019-03-28T18:21:42.821Z,12.23
2019-03-28T18:24:17.072Z,12.25
2019-03-28T18:26:51.883Z,12.24
2019-03-28T18:29:27.699Z,12.21
2019-03-28T18:32:02.111Z,12.20
2019-03-28T18:34:36.363Z,12.18
2019-03-28T18:37:10.966Z,12.16
2019-03-28T18:39:45.198Z,12.11
2019-03-28T18:42:19.476Z,12.01
2019-03-28T18:44:53.999Z,12.02
2019-03-28T18:47:28.281Z,11.99
2019-03-28T18:50:03.779Z,11.94
2019-03-28T18:52:38.369Z,11.83
2019-03-28T18:55:12.910Z,11.81
2019-03-28T18:57:47.508Z,11.82
2019-03-28T19:00:22.043Z,11.75
2019-03-28T19:02:56.400Z,11.77
2019-03-28T19:05:30.959Z,11.61
2019-03-28T19:08:05.413Z,11.56
2019-03-28T19:10:39.913Z,11.54
2019-03-28T19:13:14.226Z,11.42
2019-03-28T19:15:49.227Z,11.35
2019-03-28T19:18:24.234Z,11.28
2019-03-28T19:20:58.470Z,11.34
2019-03-28T19:23:32.982Z,11.47
2019-03-28T19:26:10.592Z,11.46
2019-03-28T19:28:43.393Z,11.49
2019-03-28T19:31:17.981Z,11.46
2019-03-28T19:33:52.817Z,11.24
2019-03-28T19:36:27.807Z,11.19
2019-03-28T19:39:02.267Z,11.14
2019-03-28T19:41:36.507Z,11.28
2019-03-28T19:44:10.895Z,11.35
2019-03-28T19:46:45.142Z,11.27
2019-03-28T19:49:19.537Z,11.24
2019-03-28T19:51:53.790Z,11.17
2019-03-28T19:54:28.077Z,11.27
2019-03-28T19:57:02.323Z,11.27
2019-03-28T19:59:36.634Z,11.21
2019-03-28T20:02:14.121Z,11.11
2019-03-28T20:04:47.068Z,11.01
2019-03-28T20:07:23.100Z,11.05
2019-03-28T20:09:57.603Z,10.98
2019-03-28T20:12:32.041Z,11.14
2019-03-28T20:15:08.095Z,11.20
2019-03-28T20:17:43.230Z,11.27
2019-03-28T20:20:18.302Z,11.30
2019-03-28T20:22:52.612Z,11.35
2019-03-28T20:25:27.070Z,11.35
2019-03-28T20:28:01.304Z,11.38
2019-03-28T20:30:35.939Z,11.35
2019-03-28T20:33:11.840Z,11.36
2019-03-28T20:36:01.917Z,11.38
2019-03-28T20:38:22.359Z,11.39
2019-03-28T20:40:58.441Z,11.40
2019-03-28T20:43:32.980Z,11.40
2019-03-28T20:46:07.271Z,11.40
2019-03-28T20:48:42.168Z,11.37
2019-03-28T20:51:17.534Z,11.38
2019-03-28T20:53:51.767Z,11.39
2019-03-28T20:56:26.230Z,11.41
2019-03-28T20:59:00.481Z,11.40
2019-03-28T21:01:34.774Z,11.36
2019-03-28T21:04:09.014Z,11.32
2019-03-28T21:06:44.470Z,11.23
2019-03-28T21:09:18.717Z,11.21
2019-03-28T21:11:53.012Z,11.15
2019-03-28T21:14:28.029Z,11.12
2019-03-28T21:17:02.252Z,11.06
2019-03-28T21:19:36.493Z,11.03
2019-03-28T21:22:10.779Z,10.94
2019-03-28T21:24:45.026Z,10.89
2019-03-28T21:27:20.797Z,10.78
2019-03-28T21:29:55.195Z,10.74
2019-03-28T21:32:29.536Z,10.65
2019-03-28T21:35:04.790Z,10.61
2019-03-28T21:37:39.055Z,10.56
2019-03-28T21:40:13.995Z,10.49
2019-03-28T21:42:48.638Z,10.42
2019-03-28T21:45:23.054Z,10.40
2019-03-28T21:47:57.341Z,10.37
2019-03-28T21:50:31.587Z,10.39
2019-03-28T21:53:06.929Z,10.43
2019-03-28T21:55:54.518Z,10.48
2019-03-28T21:58:17.530Z,10.51
2019-03-28T22:00:51.773Z,10.56
2019-03-28T22:03:26.055Z,10.57
2019-03-28T22:06:00.894Z,10.55
2019-03-28T22:08:35.167Z,10.54
2019-03-28T22:11:09.413Z,10.55
2019-03-28T22:13:43.721Z,10.61
2019-03-28T22:16:17.934Z,10.62
2019-03-28T22:18:52.454Z,10.63
2019-03-28T22:21:27.486Z,10.61
2019-03-28T22:24:02.002Z,10.46
2019-03-28T22:26:36.241Z,10.47
2019-03-28T22:29:10.788Z,10.47
2019-03-28T22:31:45.025Z,10.45
2019-03-28T22:34:19.318Z,10.41
2019-03-28T22:36:57.537Z,10.43
2019-03-28T22:39:29.926Z,10.41
2019-03-28T22:42:04.242Z,10.26
2019-03-28T22:44:39.187Z,10.26
2019-03-28T22:47:13.420Z,10.28
2019-03-28T22:49:47.695Z,10.29
2019-03-28T22:52:21.934Z,10.30
2019-03-28T22:54:56.205Z,10.30
2019-03-28T22:57:30.448Z,10.32
2019-03-28T23:00:05.714Z,10.32
2019-03-28T23:02:40.894Z,10.32
2019-03-28T23:05:15.757Z,10.33
2019-03-28T23:07:50.001Z,10.18
2019-03-28T23:10:24.366Z,10.15
2019-03-28T23:12:58.588Z,10.12
2019-03-28T23:15:32.938Z,10.08
2019-03-28T23:18:07.197Z,9.98
2019-03-28T23:20:41.473Z,9.79
2019-03-28T23:23:15.704Z,9.77
2019-03-28T23:25:50.019Z,9.76
2019-03-28T23:28:24.249Z,9.72
2019-03-28T23:30:58.900Z,9.62
2019-03-28T23:33:33.540Z,9.67
2019-03-28T23:36:07.801Z,9.60
2019-03-28T23:38:42.301Z,9.59
2019-03-28T23:41:16.568Z,9.63
2019-03-28T23:43:50.805Z,9.63
2019-03-28T23:46:25.125Z,9.63
2019-03-28T23:48:59.644Z,9.61
2019-03-28T23:51:33.953Z,9.51
2019-03-28T23:54:08.369Z,9.51
2019-03-28T23:56:42.630Z,9.47
2019-03-28T23:59:16.863Z,9.43
